• Join FlightAware (Why Join?)
  • Login
  • US Flag 
01:35PM EDT


 

Airport Tracker/Info


-or-


 

Live Flight TrackerFlight Track Log ✈ ASQ4209 ✈ 16-Jul-2013 ✈ KIAH - KBTR

Flight Track Log - Related Links

Times and Time Zones

All times are in EDT time to prevent confusion due to time zone crossing. See the ASQ4209 flight status page for this flight to view local times or setup timezone preferences in your user account.

Time Position Orientation Groundspeed Altitude Reporting Facility
EDT Latitude Longitude Course Direction KTS MPH feet Rate Location/Type
11:20PM 29.9597 -95.3439 90° East 167 192 700  Level Houston Center
11:21PM 29.9439 -95.3222 130° Southeast 163 188 1,900 1,800 Climbing Houston Center
11:22PM 29.9117 -95.2797 131° Southeast 243 280 3,100 2,040 Climbing Houston Center
11:23PM 29.9833 -95.0219 90° East  Level FlightAware Approximate
11:23PM 29.8775 -95.1975 116° Southeast 252 290 6,100  Level Houston Center
11:24PM 29.9834 -94.9181 90° East  Level FlightAware Approximate
11:24PM 29.8964 -95.1178 75° East 262 302 8,400  Level Houston Center
11:25PM 29.9834 -94.8143 90° East  Level FlightAware Approximate
11:25PM 29.9261 -95.0389 66° East 267 307 10,500  Level Houston Center
11:26PM 29.9834 -94.7105 90° East  Level FlightAware Approximate
11:26PM 29.9417 -94.9478 79° East 304 350 11,800  Level Houston Center
11:27PM 29.9489 -94.8503 85° East 305 351 13,100 1,320 Climbing Houston Center
11:28PM 29.9589 -94.7475 84° East 317 365 14,500 1,320 Climbing Houston Center
11:29PM 29.9675 -94.6400 85° East 330 380 15,800 1,260 Climbing Houston Center
11:30PM 29.9767 -94.5325 84° East 337 388 17,100 1,140 Climbing Houston Center
11:31PM 29.9864 -94.4247 84° East 342 394 18,200 1,200 Climbing Houston Center
11:32PM 29.9950 -94.3158 85° East 343 395 19,600 1,440 Climbing Houston Center
11:33PM 30.0078 -94.2081 82° East 339 390 21,200 1,620 Climbing Houston Center
11:34PM 30.0242 -94.0792 82° East 339 390 22,900 840 Climbing Houston Center
11:35PM 30.0383 -93.9669 82° East 354 407 23,000  Climbing Houston Center
11:36PM 30.0539 -93.8428 82° East 387 445 23,000  Level Houston Center
11:37PM 30.0692 -93.7136 82° East 406 467 23,000  Level Houston Center
11:38PM 30.0842 -93.5800 83° East 421 484 23,000  Level Houston Center
11:39PM 30.0997 -93.4453 82° East 428 493 23,000  Level Houston Center
11:40PM 30.1156 -93.3117 82° East 426 490 23,000  Level Houston Center
11:41PM 30.1314 -93.1783 82° East 425 489 23,000  Level Houston Center
11:42PM 30.1517 -93.0447 80° East 427 491 23,000  Level Houston Center
11:43PM 30.1831 -92.8850 77° East 426 490 23,000  Level Houston Center
11:44PM 30.2097 -92.7508 77° East 430 495 23,000  Level Houston Center
11:45PM 30.2358 -92.6169 77° East 430 495 23,000  Level Houston Center
11:46PM 30.2619 -92.4814 77° East 431 496 23,000  Level Houston Center
11:47PM 30.2875 -92.3450 78° East 433 498 23,000 -300 Level Houston Center
11:48PM 30.3125 -92.2164 77° East 427 491 22,400 -1,140 Descending Houston Center
11:49PM 30.3375 -92.0892 77° East 410 472 20,800 -1,740 Descending Houston Center
11:50PM 30.3611 -91.9642 78° East 402 463 19,000 -1,680 Descending Houston Center
11:51PM 30.3836 -91.8436 78° East 388 447 17,400 -2,160 Descending Houston Center
11:52PM 30.4067 -91.7200 78° East 372 428 14,700 -2,880 Descending Houston Center
11:53PM 30.3978 -91.6172 96° East 330 380 11,700 -2,460 Descending Houston Center
11:54PM 30.3836 -91.5239 100° East 295 339 9,800 -2,400 Descending Houston Center
11:55PM 30.3719 -91.4431 99° East 260 299 6,900 -2,820 Descending Houston Center
11:57PM 30.3914 -91.3694 73° East 261 300 4,200 -2,100 Descending Houston Center
11:58PM 30.3964 -91.3050 85° East 231 266 2,700 -1,500 Descending Houston Center